Time;durP1;ratioP1;P1;durP2;ratioP2;P2;SDS_P1;SDS_P2;PMS_P1;PMS_P2;Temp;Humidity;BMP_temperature;BMP_pressure;BME280_temperature;BME280_humidity;BME280_pressure;Samples;Min_cycle;Max_cycle;Signal;HPM_P1;HPM_P2
2022/03/01 00:00:29;;;;;;;9.13;6.18;;;;;;;;;;5082035;28;20539;-68
2022/03/01 00:02:55;;;;;;;9.27;5.80;;;;;;;;;;5080721;28;20047;-68
2022/03/01 00:05:21;;;;;;;9.18;5.80;;;;;;;;;;5065089;28;20582;-67
2022/03/01 00:07:47;;;;;;;8.93;5.60;;;;;;;;;;5078856;28;20044;-68
2022/03/01 00:10:13;;;;;;;10.48;5.97;;;;;;;;;;5081882;28;20046;-67
2022/03/01 00:12:39;;;;;;;7.78;5.30;;;;;;;;;;5079566;28;20055;-68
2022/03/01 00:15:06;;;;;;;10.50;5.65;;;;;;;;;;5081656;28;20064;-68
2022/03/01 00:17:32;;;;;;;9.68;5.75;;;;;;;;;;5062998;28;20607;-68
2022/03/01 00:19:57;;;;;;;9.07;5.63;;;;;;;;;;5081715;28;20454;-68
2022/03/01 00:22:24;;;;;;;8.30;5.55;;;;;;;;;;5079059;28;20055;-68
2022/03/01 00:24:50;;;;;;;8.55;5.72;;;;;;;;;;5082936;28;20093;-68
2022/03/01 00:27:16;;;;;;;8.73;5.53;;;;;;;;;;5062070;28;20032;-68
2022/03/01 00:29:42;;;;;;;9.32;5.78;;;;;;;;;;5081414;28;20127;-68
2022/03/01 00:32:09;;;;;;;8.10;5.25;;;;;;;;;;5080937;28;20112;-68
2022/03/01 00:34:35;;;;;;;9.07;5.50;;;;;;;;;;5081008;28;20055;-68
2022/03/01 00:37:01;;;;;;;9.43;5.68;;;;;;;;;;5078849;28;20074;-68
2022/03/01 00:39:27;;;;;;;8.52;5.30;;;;;;;;;;5080156;28;20473;-68
2022/03/01 00:41:53;;;;;;;8.85;5.72;;;;;;;;;;5071450;28;20078;-68
2022/03/01 00:44:19;;;;;;;8.88;5.43;;;;;;;;;;5074532;28;20055;-68
2022/03/01 00:46:45;;;;;;;10.60;5.72;;;;;;;;;;5077445;28;20048;-68
2022/03/01 00:49:11;;;;;;;8.65;5.63;;;;;;;;;;5067359;28;20041;-67
2022/03/01 00:51:37;;;;;;;9.60;5.38;;;;;;;;;;5060073;28;20051;-68
2022/03/01 00:54:03;;;;;;;10.13;5.53;;;;;;;;;;5056955;28;20128;-68
2022/03/01 00:56:30;;;;;;;9.85;5.93;;;;;;;;;;5052643;28;20083;-68
2022/03/01 00:58:56;;;;;;;12.10;5.72;;;;;;;;;;5077403;28;20048;-68
2022/03/01 01:01:23;;;;;;;9.25;5.38;;;;;;;;;;5060192;28;20132;-68
2022/03/01 01:03:49;;;;;;;9.50;5.53;;;;;;;;;;5067293;28;20763;-68
2022/03/01 01:06:15;;;;;;;8.70;5.57;;;;;;;;;;5073914;28;20168;-68
2022/03/01 01:08:41;;;;;;;9.75;5.80;;;;;;;;;;5075813;28;20755;-68
2022/03/01 01:11:07;;;;;;;9.15;5.88;;;;;;;;;;5080473;28;20044;-68
2022/03/01 01:13:33;;;;;;;9.82;5.80;;;;;;;;;;5078539;28;20048;-68
2022/03/01 01:15:59;;;;;;;8.38;5.47;;;;;;;;;;5080419;28;20128;-68
2022/03/01 01:18:25;;;;;;;8.80;5.60;;;;;;;;;;5078613;28;20616;-67
2022/03/01 01:20:51;;;;;;;9.27;5.57;;;;;;;;;;5080491;28;20077;-67
2022/03/01 01:23:17;;;;;;;8.50;5.65;;;;;;;;;;5077916;28;20047;-68
2022/03/01 01:25:43;;;;;;;9.30;5.78;;;;;;;;;;5063436;28;20131;-67
2022/03/01 01:28:09;;;;;;;8.45;5.75;;;;;;;;;;5079376;28;20745;-67
2022/03/01 01:30:35;;;;;;;9.07;5.57;;;;;;;;;;5080262;28;20055;-67
2022/03/01 01:33:01;;;;;;;8.57;5.60;;;;;;;;;;5078417;28;20040;-67
2022/03/01 01:35:28;;;;;;;9.45;5.60;;;;;;;;;;5063339;28;20333;-68
2022/03/01 01:37:55;;;;;;;8.07;5.57;;;;;;;;;;5079813;28;20040;-68
2022/03/01 01:40:22;;;;;;;8.32;5.72;;;;;;;;;;5084063;28;20071;-68
2022/03/01 01:42:49;;;;;;;8.45;6.00;;;;;;;;;;5082259;28;20051;-68
2022/03/01 01:45:15;;;;;;;8.90;5.63;;;;;;;;;;5083834;28;20047;-67
2022/03/01 01:47:41;;;;;;;8.23;5.28;;;;;;;;;;5082048;28;20044;-67
2022/03/01 01:50:08;;;;;;;8.80;5.40;;;;;;;;;;5084245;28;20101;-68
2022/03/01 01:52:34;;;;;;;8.48;5.35;;;;;;;;;;5081877;28;20080;-68
2022/03/01 01:55:00;;;;;;;8.60;5.15;;;;;;;;;;5084833;28;20075;-68
2022/03/01 01:57:26;;;;;;;8.77;5.60;;;;;;;;;;5075535;28;20040;-68
2022/03/01 01:59:54;;;;;;;7.93;5.25;;;;;;;;;;5064070;28;20036;-68
2022/03/01 02:02:21;;;;;;;9.07;5.00;;;;;;;;;;5053038;28;20076;-68
2022/03/01 02:04:47;;;;;;;8.20;5.50;;;;;;;;;;5066979;28;20047;-68
2022/03/01 02:07:13;;;;;;;8.10;5.07;;;;;;;;;;5082246;28;20044;-67
2022/03/01 02:09:39;;;;;;;7.90;5.00;;;;;;;;;;5083423;28;20109;-67
2022/03/01 02:12:05;;;;;;;7.47;4.53;;;;;;;;;;5082380;28;20919;-68
2022/03/01 02:14:35;;;;;;;7.43;4.80;;;;;;;;;;5084120;28;20131;-67
2022/03/01 02:17:03;;;;;;;7.47;4.97;;;;;;;;;;5081738;28;20040;-68
2022/03/01 02:19:29;;;;;;;7.97;4.93;;;;;;;;;;5083405;28;20056;-67
2022/03/01 02:21:56;;;;;;;8.13;4.80;;;;;;;;;;5081138;28;20080;-67
2022/03/01 02:24:22;;;;;;;7.35;5.07;;;;;;;;;;5083183;28;20047;-68
2022/03/01 02:26:48;;;;;;;7.35;4.90;;;;;;;;;;5081593;28;20087;-67
2022/03/01 02:29:15;;;;;;;7.55;4.55;;;;;;;;;;5083968;28;20130;-67
2022/03/01 02:31:41;;;;;;;8.52;4.88;;;;;;;;;;5081976;28;20047;-68
2022/03/01 02:34:08;;;;;;;8.60;4.85;;;;;;;;;;5074898;28;20143;-67
2022/03/01 02:36:34;;;;;;;7.43;4.70;;;;;;;;;;5043219;28;20385;-67
2022/03/01 02:39:00;;;;;;;7.35;4.70;;;;;;;;;;5093684;28;20060;-67
2022/03/01 02:41:26;;;;;;;8.55;4.63;;;;;;;;;;5063171;28;20162;-68
2022/03/01 02:43:52;;;;;;;7.32;4.78;;;;;;;;;;5080872;28;20055;-68
2022/03/01 02:46:18;;;;;;;7.85;4.43;;;;;;;;;;5082676;28;20044;-67
2022/03/01 02:48:44;;;;;;;7.20;4.22;;;;;;;;;;5080669;28;20062;-68
2022/03/01 02:51:10;;;;;;;8.02;4.50;;;;;;;;;;5083168;28;20048;-67
2022/03/01 02:53:36;;;;;;;8.13;4.70;;;;;;;;;;5080755;28;20086;-67
2022/03/01 02:56:03;;;;;;;7.55;4.90;;;;;;;;;;5083017;28;20555;-67
2022/03/01 02:58:29;;;;;;;6.50;4.22;;;;;;;;;;5082643;28;20100;-67
2022/03/01 03:00:55;;;;;;;7.30;4.45;;;;;;;;;;5083397;28;20044;-68
2022/03/01 03:03:21;;;;;;;9.45;4.93;;;;;;;;;;5080911;28;20540;-67
2022/03/01 03:05:47;;;;;;;7.78;4.80;;;;;;;;;;5082815;28;20058;-67
2022/03/01 03:08:13;;;;;;;7.80;4.65;;;;;;;;;;5078957;28;20134;-68
2022/03/01 03:10:39;;;;;;;7.07;4.45;;;;;;;;;;5081102;28;20689;-68
2022/03/01 03:13:06;;;;;;;7.78;5.00;;;;;;;;;;5079195;28;20036;-68
2022/03/01 03:15:32;;;;;;;8.25;4.85;;;;;;;;;;5064019;28;20071;-67
2022/03/01 03:17:59;;;;;;;7.75;5.05;;;;;;;;;;5078927;28;20039;-68
2022/03/01 03:20:25;;;;;;;8.05;4.55;;;;;;;;;;5081287;28;20055;-68
2022/03/01 03:22:51;;;;;;;8.43;5.00;;;;;;;;;;5061474;28;20032;-67
2022/03/01 03:25:17;;;;;;;8.30;4.85;;;;;;;;;;5064108;28;20047;-68
2022/03/01 03:27:43;;;;;;;7.45;4.22;;;;;;;;;;5079052;28;20042;-68
2022/03/01 03:30:10;;;;;;;8.60;4.80;;;;;;;;;;5082929;28;20072;-71
2022/03/01 03:32:36;;;;;;;8.50;4.60;;;;;;;;;;5083996;28;20122;-72
2022/03/01 03:35:03;;;;;;;8.80;4.45;;;;;;;;;;5085550;28;20119;-72
2022/03/01 03:37:29;;;;;;;7.07;4.40;;;;;;;;;;5066297;28;20044;-72
2022/03/01 03:39:55;;;;;;;7.50;4.68;;;;;;;;;;5085095;28;20052;-71
2022/03/01 03:42:21;;;;;;;7.95;4.50;;;;;;;;;;5078632;28;20485;-72
2022/03/01 03:44:47;;;;;;;7.80;4.85;;;;;;;;;;5065748;28;20036;-72
2022/03/01 03:47:13;;;;;;;7.60;4.22;;;;;;;;;;5065590;28;20091;-72
2022/03/01 03:49:39;;;;;;;7.63;4.68;;;;;;;;;;5065497;28;20466;-71
2022/03/01 03:52:06;;;;;;;7.97;5.13;;;;;;;;;;5039737;28;20602;-72
2022/03/01 03:54:32;;;;;;;7.10;4.03;;;;;;;;;;5075445;28;20185;-71
2022/03/01 03:56:58;;;;;;;7.18;4.75;;;;;;;;;;5052162;28;20036;-73
2022/03/01 03:59:24;;;;;;;7.03;4.72;;;;;;;;;;5085255;28;20118;-72
2022/03/01 04:01:50;;;;;;;8.07;4.82;;;;;;;;;;5084304;28;20606;-72
2022/03/01 04:04:16;;;;;;;7.03;4.40;;;;;;;;;;5085149;28;20043;-72
2022/03/01 04:06:43;;;;;;;8.80;4.60;;;;;;;;;;5067090;28;20500;-72
2022/03/01 04:09:09;;;;;;;7.50;4.80;;;;;;;;;;5085193;28;20043;-72
2022/03/01 04:11:35;;;;;;;8.02;4.80;;;;;;;;;;5086172;28;20044;-72
2022/03/01 04:14:01;;;;;;;7.75;4.70;;;;;;;;;;5085471;28;20128;-72
2022/03/01 04:16:30;;;;;;;7.18;4.57;;;;;;;;;;5087492;28;20066;-72
2022/03/01 04:18:56;;;;;;;7.68;4.70;;;;;;;;;;5067752;28;20117;-72
2022/03/01 04:21:22;;;;;;;8.38;4.88;;;;;;;;;;5068670;28;20059;-72
2022/03/01 04:23:49;;;;;;;7.00;4.45;;;;;;;;;;5065549;28;20072;-72
2022/03/01 04:26:15;;;;;;;7.72;4.68;;;;;;;;;;5065258;28;20127;-72
2022/03/01 04:28:42;;;;;;;7.32;4.43;;;;;;;;;;5064523;28;20127;-72
2022/03/01 04:31:08;;;;;;;9.75;5.10;;;;;;;;;;5085469;28;20552;-72
2022/03/01 04:33:34;;;;;;;7.25;4.40;;;;;;;;;;5067170;28;20032;-72
2022/03/01 04:36:02;;;;;;;7.93;4.68;;;;;;;;;;5085475;28;20043;-72
2022/03/01 04:38:29;;;;;;;7.68;4.40;;;;;;;;;;5066660;28;20046;-72
2022/03/01 04:40:55;;;;;;;7.75;4.80;;;;;;;;;;5085429;28;20062;-72
2022/03/01 04:43:21;;;;;;;7.78;5.22;;;;;;;;;;5085637;28;20032;-72
2022/03/01 04:45:47;;;;;;;7.18;4.70;;;;;;;;;;5085198;28;20051;-72
2022/03/01 04:48:13;;;;;;;7.53;5.03;;;;;;;;;;5083931;28;20040;-72
2022/03/01 04:50:39;;;;;;;7.63;4.72;;;;;;;;;;5085675;28;20039;-72
2022/03/01 04:53:05;;;;;;;7.50;4.57;;;;;;;;;;5082634;28;20044;-72
2022/03/01 04:55:32;;;;;;;8.25;4.35;;;;;;;;;;5085682;28;20488;-72
2022/03/01 04:57:58;;;;;;;7.85;4.82;;;;;;;;;;5083804;28;20389;-72
2022/03/01 05:00:24;;;;;;;7.75;4.80;;;;;;;;;;5085337;28;20048;-72
2022/03/01 05:02:50;;;;;;;7.53;4.63;;;;;;;;;;5062890;28;20398;-72
2022/03/01 05:05:16;;;;;;;7.05;4.70;;;;;;;;;;5045007;28;20037;-72
2022/03/01 05:07:43;;;;;;;8.13;4.75;;;;;;;;;;5063386;28;20052;-72
2022/03/01 05:10:10;;;;;;;8.00;4.85;;;;;;;;;;5086496;28;20736;-72
2022/03/01 05:12:50;;;;;;;8.02;4.97;;;;;;;;;;5083663;28;20072;-72
2022/03/01 05:15:16;;;;;;;7.13;4.38;;;;;;;;;;5085313;28;20051;-72
2022/03/01 05:17:42;;;;;;;7.90;4.97;;;;;;;;;;5074137;28;20402;-72
2022/03/01 05:20:09;;;;;;;8.25;4.75;;;;;;;;;;5048090;28;20072;-72
2022/03/01 05:22:35;;;;;;;8.13;5.13;;;;;;;;;;5072278;28;20126;-72
2022/03/01 05:25:01;;;;;;;6.95;4.50;;;;;;;;;;5084928;28;20059;-72
2022/03/01 05:27:28;;;;;;;8.07;4.90;;;;;;;;;;5083554;28;20035;-72
2022/03/01 05:29:54;;;;;;;7.38;4.32;;;;;;;;;;5085062;28;20048;-72
2022/03/01 05:32:20;;;;;;;8.88;4.97;;;;;;;;;;5083030;28;20123;-72
2022/03/01 05:34:47;;;;;;;7.70;4.63;;;;;;;;;;5067781;28;20133;-72
2022/03/01 05:37:13;;;;;;;7.57;5.15;;;;;;;;;;5083778;28;20054;-72
2022/03/01 05:39:39;;;;;;;8.05;5.05;;;;;;;;;;5084615;28;20071;-72
2022/03/01 05:42:05;;;;;;;7.88;4.70;;;;;;;;;;5084849;28;20074;-72
2022/03/01 05:44:31;;;;;;;8.50;5.68;;;;;;;;;;5067970;28;20036;-72
2022/03/01 05:46:57;;;;;;;8.85;4.72;;;;;;;;;;5038446;28;20040;-72
2022/03/01 05:49:23;;;;;;;9.43;4.90;;;;;;;;;;5051774;28;20568;-73
2022/03/01 05:51:49;;;;;;;8.38;5.03;;;;;;;;;;5066208;28;20048;-72
2022/03/01 05:54:15;;;;;;;8.30;4.80;;;;;;;;;;5041360;28;20668;-72
2022/03/01 05:56:41;;;;;;;10.93;5.38;;;;;;;;;;5046116;28;20036;-72
2022/03/01 05:59:07;;;;;;;10.00;4.82;;;;;;;;;;5084373;28;20064;-72
2022/03/01 06:01:33;;;;;;;8.23;4.90;;;;;;;;;;5071058;28;20048;-72
2022/03/01 06:03:59;;;;;;;7.75;4.85;;;;;;;;;;5084110;28;20668;-72
2022/03/01 06:06:25;;;;;;;8.45;5.57;;;;;;;;;;5085654;28;20055;-71
2022/03/01 06:08:51;;;;;;;7.07;4.57;;;;;;;;;;5053312;28;20092;-71
2022/03/01 06:11:17;;;;;;;7.28;4.50;;;;;;;;;;5064176;28;20085;-71
2022/03/01 06:13:43;;;;;;;8.82;5.57;;;;;;;;;;5082900;28;20054;-72
2022/03/01 06:16:10;;;;;;;9.32;5.00;;;;;;;;;;5084113;28;20078;-72
2022/03/01 06:18:36;;;;;;;9.82;4.90;;;;;;;;;;5084641;28;20043;-72
2022/03/01 06:21:02;;;;;;;10.05;5.13;;;;;;;;;;5084162;28;20036;-72
2022/03/01 06:23:28;;;;;;;10.20;5.13;;;;;;;;;;5084933;28;20036;-71
2022/03/01 06:25:54;;;;;;;8.50;5.57;;;;;;;;;;5054893;28;20049;-71
2022/03/01 06:28:20;;;;;;;8.30;4.47;;;;;;;;;;5049712;28;20081;-72
2022/03/01 06:30:46;;;;;;;8.48;5.13;;;;;;;;;;5067768;28;20109;-71
2022/03/01 06:33:13;;;;;;;8.43;4.93;;;;;;;;;;5093447;27;20568;-71
2022/03/01 06:35:39;;;;;;;7.60;4.72;;;;;;;;;;5080496;28;20067;-71
2022/03/01 06:38:05;;;;;;;7.93;4.85;;;;;;;;;;5074250;28;20040;-71
2022/03/01 06:40:31;;;;;;;8.98;5.43;;;;;;;;;;5072141;28;20047;-71
2022/03/01 06:42:57;;;;;;;9.13;4.63;;;;;;;;;;5073427;28;20044;-72
2022/03/01 06:45:24;;;;;;;8.80;5.57;;;;;;;;;;5070725;28;20113;-72
2022/03/01 06:47:50;;;;;;;7.88;4.88;;;;;;;;;;5076776;28;20047;-71
2022/03/01 06:50:16;;;;;;;8.40;5.35;;;;;;;;;;5048275;28;20041;-72
2022/03/01 06:52:42;;;;;;;8.23;5.10;;;;;;;;;;5042757;28;20056;-71
2022/03/01 06:55:09;;;;;;;13.75;6.30;;;;;;;;;;5062838;28;20049;-72
2022/03/01 06:57:37;;;;;;;9.07;6.47;;;;;;;;;;5064781;28;20063;-71
2022/03/01 07:00:03;;;;;;;13.30;6.35;;;;;;;;;;5050690;28;20041;-72
2022/03/01 07:02:30;;;;;;;12.77;7.28;;;;;;;;;;5066698;28;20062;-72
2022/03/01 07:04:57;;;;;;;11.23;6.85;;;;;;;;;;5073527;28;20048;-71
2022/03/01 07:07:23;;;;;;;20.05;8.63;;;;;;;;;;5076508;28;20329;-72
2022/03/01 07:09:49;;;;;;;13.75;7.05;;;;;;;;;;5089280;28;20616;-72
2022/03/01 07:12:16;;;;;;;16.63;7.85;;;;;;;;;;5082188;28;20113;-71
2022/03/01 07:14:42;;;;;;;11.20;6.63;;;;;;;;;;5068581;28;20040;-72
2022/03/01 07:17:08;;;;;;;10.10;6.72;;;;;;;;;;5068703;28;20381;-71
2022/03/01 07:19:34;;;;;;;9.73;6.63;;;;;;;;;;5068379;28;20044;-71
2022/03/01 07:21:59;;;;;;;10.05;6.60;;;;;;;;;;5071436;28;20094;-71
2022/03/01 07:24:26;;;;;;;12.43;6.78;;;;;;;;;;5086751;28;20085;-72
2022/03/01 07:26:52;;;;;;;11.05;6.55;;;;;;;;;;5069043;28;20174;-71
2022/03/01 07:29:18;;;;;;;9.40;6.65;;;;;;;;;;5087097;28;20529;-71
2022/03/01 07:31:44;;;;;;;9.73;6.47;;;;;;;;;;5084351;28;20052;-72
2022/03/01 07:34:10;;;;;;;10.35;6.55;;;;;;;;;;5065865;28;20516;-70
2022/03/01 07:36:36;;;;;;;10.63;6.43;;;;;;;;;;5064599;28;20062;-71
2022/03/01 07:39:02;;;;;;;10.30;5.82;;;;;;;;;;5058197;28;20646;-71
2022/03/01 07:41:28;;;;;;;9.18;6.32;;;;;;;;;;5080327;28;20057;-70
2022/03/01 07:43:54;;;;;;;10.40;6.07;;;;;;;;;;5102631;28;20048;-71
2022/03/01 07:46:20;;;;;;;8.35;5.63;;;;;;;;;;5087186;28;20342;-70
2022/03/01 07:48:46;;;;;;;9.98;6.22;;;;;;;;;;5084766;28;20097;-71
2022/03/01 07:51:12;;;;;;;11.05;6.35;;;;;;;;;;5086512;28;20040;-71
2022/03/01 07:53:38;;;;;;;10.00;6.10;;;;;;;;;;5084259;28;20043;-71
2022/03/01 07:56:05;;;;;;;9.43;6.07;;;;;;;;;;5069367;28;20040;-71
2022/03/01 07:58:31;;;;;;;10.65;5.55;;;;;;;;;;5052030;28;20679;-71
2022/03/01 08:00:57;;;;;;;8.55;5.68;;;;;;;;;;5065763;28;20115;-71
2022/03/01 08:03:23;;;;;;;9.05;5.78;;;;;;;;;;5080432;28;20119;-70
2022/03/01 08:05:49;;;;;;;9.30;5.60;;;;;;;;;;5068886;28;20472;-70
2022/03/01 08:08:15;;;;;;;9.32;6.10;;;;;;;;;;5049510;28;20044;-71
2022/03/01 08:10:41;;;;;;;9.75;5.80;;;;;;;;;;5075881;28;20040;-71
2022/03/01 08:13:07;;;;;;;8.07;5.38;;;;;;;;;;5044992;28;20085;-71
2022/03/01 08:15:33;;;;;;;8.65;5.68;;;;;;;;;;5045898;28;20099;-70
2022/03/01 08:17:59;;;;;;;9.02;5.68;;;;;;;;;;5086504;28;20076;-71
2022/03/01 08:20:26;;;;;;;9.50;6.00;;;;;;;;;;5085502;28;20044;-71
2022/03/01 08:22:52;;;;;;;9.35;6.07;;;;;;;;;;5074898;28;20044;-71
2022/03/01 08:25:19;;;;;;;9.43;5.60;;;;;;;;;;5066712;28;20037;-71
2022/03/01 08:27:46;;;;;;;8.70;5.65;;;;;;;;;;5073916;28;20066;-71
2022/03/01 08:30:12;;;;;;;10.88;5.28;;;;;;;;;;5085170;28;20048;-71
2022/03/01 08:32:38;;;;;;;9.05;5.78;;;;;;;;;;5082930;28;20063;-72
2022/03/01 08:35:05;;;;;;;9.98;5.53;;;;;;;;;;5086545;28;20642;-72
2022/03/01 08:37:31;;;;;;;9.10;5.28;;;;;;;;;;5083352;28;20461;-71
2022/03/01 08:39:57;;;;;;;10.55;5.63;;;;;;;;;;5084969;28;20059;-71
2022/03/01 08:42:23;;;;;;;9.02;5.82;;;;;;;;;;5083333;28;20380;-71
2022/03/01 08:44:49;;;;;;;9.65;5.53;;;;;;;;;;5084257;28;20047;-71
2022/03/01 08:47:15;;;;;;;9.38;5.68;;;;;;;;;;5082469;28;20065;-71
2022/03/01 08:49:41;;;;;;;9.30;5.45;;;;;;;;;;5084165;28;20119;-72
2022/03/01 08:52:07;;;;;;;8.55;5.90;;;;;;;;;;5082166;28;20043;-71
2022/03/01 08:54:33;;;;;;;8.73;5.53;;;;;;;;;;5067732;28;20063;-71
2022/03/01 08:56:59;;;;;;;9.20;5.43;;;;;;;;;;5083363;28;20122;-71
2022/03/01 08:59:25;;;;;;;8.77;5.38;;;;;;;;;;5084245;28;20475;-71
2022/03/01 09:01:51;;;;;;;8.52;5.15;;;;;;;;;;5082339;28;20587;-71
2022/03/01 09:04:17;;;;;;;9.32;5.68;;;;;;;;;;5083931;28;20040;-71
2022/03/01 09:06:43;;;;;;;9.18;5.32;;;;;;;;;;5082854;28;20043;-72
2022/03/01 09:09:09;;;;;;;8.13;5.03;;;;;;;;;;5083791;28;20040;-72
2022/03/01 09:11:35;;;;;;;9.25;5.50;;;;;;;;;;5065199;28;20072;-72
2022/03/01 09:14:01;;;;;;;8.82;5.40;;;;;;;;;;5061240;28;20044;-72
2022/03/01 09:16:27;;;;;;;7.32;4.88;;;;;;;;;;5075605;28;20513;-71
2022/03/01 09:18:53;;;;;;;9.38;5.65;;;;;;;;;;5115680;27;20043;-72
2022/03/01 09:21:19;;;;;;;8.10;5.55;;;;;;;;;;5084066;28;20040;-72
2022/03/01 09:23:45;;;;;;;8.75;5.60;;;;;;;;;;5081088;28;20043;-72
2022/03/01 09:26:12;;;;;;;8.20;5.35;;;;;;;;;;5067089;28;20072;-72
2022/03/01 09:28:38;;;;;;;9.07;5.40;;;;;;;;;;5082455;28;20042;-72
2022/03/01 09:31:04;;;;;;;7.65;4.65;;;;;;;;;;5083815;28;20040;-71
2022/03/01 09:33:30;;;;;;;8.18;5.40;;;;;;;;;;5082206;28;20616;-73
2022/03/01 09:35:56;;;;;;;10.15;5.50;;;;;;;;;;5083524;28;20044;-72
2022/03/01 09:38:24;;;;;;;8.40;5.25;;;;;;;;;;5080603;28;20040;-73
2022/03/01 09:40:50;;;;;;;8.32;5.20;;;;;;;;;;5066917;28;20389;-71
2022/03/01 09:43:17;;;;;;;7.75;4.93;;;;;;;;;;5082852;28;20088;-72
2022/03/01 09:45:43;;;;;;;7.90;4.80;;;;;;;;;;5083633;28;20158;-71
2022/03/01 09:48:09;;;;;;;8.73;5.15;;;;;;;;;;5081796;28;20066;-72
2022/03/01 09:50:35;;;;;;;7.97;5.07;;;;;;;;;;5083418;28;20036;-72
2022/03/01 09:53:02;;;;;;;9.27;5.35;;;;;;;;;;5081623;28;20068;-71
2022/03/01 09:55:29;;;;;;;9.32;5.47;;;;;;;;;;5083047;28;20059;-71
2022/03/01 09:57:56;;;;;;;8.13;5.25;;;;;;;;;;5071361;28;20056;-72
2022/03/01 10:00:22;;;;;;;9.90;5.70;;;;;;;;;;5083911;28;20044;-72
2022/03/01 10:02:53;;;;;;;7.78;4.80;;;;;;;;;;5076400;28;20044;-72
2022/03/01 10:05:19;;;;;;;8.65;5.43;;;;;;;;;;5087396;28;20036;-72
2022/03/01 10:07:46;;;;;;;8.45;5.18;;;;;;;;;;5085343;28;20051;-72
2022/03/01 10:10:16;;;;;;;8.32;5.18;;;;;;;;;;5069715;28;20043;-72
2022/03/01 10:12:42;;;;;;;9.02;5.40;;;;;;;;;;5068234;28;20127;-73
2022/03/01 10:15:10;;;;;;;7.85;4.75;;;;;;;;;;5088204;28;20051;-73
2022/03/01 10:17:37;;;;;;;8.40;5.05;;;;;;;;;;5086107;28;20705;-72
2022/03/01 10:20:07;;;;;;;7.57;4.88;;;;;;;;;;5088097;28;20363;-72
2022/03/01 10:22:33;;;;;;;8.13;4.95;;;;;;;;;;5060946;28;20055;-71
2022/03/01 10:25:03;;;;;;;7.68;4.50;;;;;;;;;;5049764;28;20076;-72
2022/03/01 10:27:29;;;;;;;7.43;4.75;;;;;;;;;;5072482;28;20048;-68
2022/03/01 10:29:55;;;;;;;10.15;5.05;;;;;;;;;;5085477;28;20067;-69
2022/03/01 10:32:21;;;;;;;8.55;5.43;;;;;;;;;;5082108;28;20044;-68
2022/03/01 10:34:57;;;;;;;7.75;5.20;;;;;;;;;;5083847;28;20079;-69
2022/03/01 10:37:27;;;;;;;9.10;4.90;;;;;;;;;;5039787;28;20060;-67
2022/03/01 10:40:09;;;;;;;8.02;4.78;;;;;;;;;;5030289;28;20763;-70
2022/03/01 10:42:35;;;;;;;9.60;5.40;;;;;;;;;;5053548;28;20053;-69
2022/03/01 10:45:01;;;;;;;8.45;5.15;;;;;;;;;;5051157;28;20058;-69
2022/03/01 10:47:28;;;;;;;9.13;5.28;;;;;;;;;;5074970;28;20059;-68
2022/03/01 10:50:06;;;;;;;8.35;4.88;;;;;;;;;;5046868;28;20080;-70
2022/03/01 10:52:36;;;;;;;9.07;5.20;;;;;;;;;;5071641;28;20048;-70
2022/03/01 10:55:03;;;;;;;8.40;5.20;;;;;;;;;;5043068;28;20047;-70
2022/03/01 10:57:29;;;;;;;8.30;5.20;;;;;;;;;;5047194;28;20072;-69
2022/03/01 10:59:55;;;;;;;7.75;4.72;;;;;;;;;;5054761;28;20083;-69
2022/03/01 11:02:21;;;;;;;10.30;5.03;;;;;;;;;;5056781;28;20494;-73
2022/03/01 11:04:47;;;;;;;8.52;4.97;;;;;;;;;;5085113;28;20525;-73
2022/03/01 11:07:14;;;;;;;8.90;4.95;;;;;;;;;;5074637;28;20087;-73
2022/03/01 11:09:40;;;;;;;8.52;5.10;;;;;;;;;;5059249;28;20041;-73
2022/03/01 11:12:07;;;;;;;8.65;5.20;;;;;;;;;;5079406;27;20520;-70
2022/03/01 11:14:46;;;;;;;7.88;5.05;;;;;;;;;;5063635;28;20706;-68
2022/03/01 11:17:22;;;;;;;8.75;5.25;;;;;;;;;;5086771;27;20048;-68
2022/03/01 11:19:54;;;;;;;8.23;5.03;;;;;;;;;;5083870;28;20123;-69
2022/03/01 11:22:20;;;;;;;9.95;5.57;;;;;;;;;;5048683;28;20052;-69
2022/03/01 11:24:47;;;;;;;8.65;5.38;;;;;;;;;;5043137;28;20098;-69
2022/03/01 11:27:18;;;;;;;8.98;5.25;;;;;;;;;;5053087;28;20604;-69
2022/03/01 11:29:44;;;;;;;7.53;4.82;;;;;;;;;;5071944;28;20195;-70
2022/03/01 11:32:11;;;;;;;9.48;5.55;;;;;;;;;;5075795;28;20127;-69
2022/03/01 11:34:38;;;;;;;8.30;5.15;;;;;;;;;;5060137;28;20033;-69
2022/03/01 11:37:04;;;;;;;8.27;5.35;;;;;;;;;;5074720;28;20048;-69
2022/03/01 11:39:31;;;;;;;8.52;5.07;;;;;;;;;;5051753;28;20044;-73
2022/03/01 11:42:05;;;;;;;8.80;5.30;;;;;;;;;;5048581;28;20074;-72
2022/03/01 11:44:33;;;;;;;9.25;5.07;;;;;;;;;;5048546;28;20496;-73
2022/03/01 11:46:59;;;;;;;7.53;4.80;;;;;;;;;;5081182;28;20036;-72
2022/03/01 11:49:26;;;;;;;8.10;5.00;;;;;;;;;;5043348;28;20640;-73
2022/03/01 11:51:56;;;;;;;8.63;4.97;;;;;;;;;;5080921;28;20563;-72
2022/03/01 11:54:27;;;;;;;8.45;5.30;;;;;;;;;;5043902;28;20755;-73
2022/03/01 11:56:55;;;;;;;9.68;5.53;;;;;;;;;;5050468;28;20048;-73
2022/03/01 11:59:21;;;;;;;7.60;4.93;;;;;;;;;;5070039;28;20421;-73
2022/03/01 12:01:47;;;;;;;8.63;5.30;;;;;;;;;;5074353;28;20052;-71
2022/03/01 12:04:19;;;;;;;8.60;4.90;;;;;;;;;;5053835;28;20037;-74
2022/03/01 12:06:46;;;;;;;9.13;5.55;;;;;;;;;;5064714;28;20048;-72
2022/03/01 12:09:12;;;;;;;8.27;5.25;;;;;;;;;;5044104;28;20068;-72
2022/03/01 12:11:44;;;;;;;7.90;5.00;;;;;;;;;;5051655;28;20397;-69
2022/03/01 12:14:11;;;;;;;9.27;5.35;;;;;;;;;;5055482;28;20058;-69
2022/03/01 12:16:38;;;;;;;8.43;5.13;;;;;;;;;;5061618;28;20482;-69
2022/03/01 12:19:24;;;;;;;8.00;4.82;;;;;;;;;;5064726;28;20054;-69
2022/03/01 12:21:55;;;;;;;8.23;5.22;;;;;;;;;;5059973;28;20075;-69
2022/03/01 12:24:22;;;;;;;9.15;4.90;;;;;;;;;;5020658;28;20044;-69
2022/03/01 12:26:50;;;;;;;8.63;5.30;;;;;;;;;;5031958;28;20044;-69
2022/03/01 12:29:18;;;;;;;8.95;5.47;;;;;;;;;;5050031;28;20192;-70
2022/03/01 12:31:54;;;;;;;7.60;4.88;;;;;;;;;;5076085;28;20044;-69
2022/03/01 12:34:23;;;;;;;8.43;5.05;;;;;;;;;;5058937;28;20571;-69
2022/03/01 12:36:49;;;;;;;7.45;4.85;;;;;;;;;;5043842;28;20047;-69
2022/03/01 12:39:16;;;;;;;10.13;5.25;;;;;;;;;;5053088;28;20037;-69
2022/03/01 12:41:44;;;;;;;9.10;5.40;;;;;;;;;;5061820;28;20513;-69
2022/03/01 12:44:11;;;;;;;9.15;4.70;;;;;;;;;;5081463;28;20401;-70
2022/03/01 12:46:38;;;;;;;8.07;5.00;;;;;;;;;;5080390;28;20416;-69
2022/03/01 12:49:08;;;;;;;8.25;5.03;;;;;;;;;;5080725;28;20501;-69
2022/03/01 12:51:35;;;;;;;9.65;5.65;;;;;;;;;;5081017;28;20705;-68
2022/03/01 12:54:06;;;;;;;9.38;5.43;;;;;;;;;;5097113;27;20044;-68
2022/03/01 12:56:34;;;;;;;8.35;5.15;;;;;;;;;;5052363;28;20080;-68
2022/03/01 12:59:08;;;;;;;9.13;5.68;;;;;;;;;;5031484;28;20122;-69
2022/03/01 13:01:35;;;;;;;8.38;5.38;;;;;;;;;;5078990;28;20041;-68
2022/03/01 13:04:02;;;;;;;8.40;4.85;;;;;;;;;;5084256;28;20130;-68
2022/03/01 13:06:28;;;;;;;7.82;5.07;;;;;;;;;;5053632;28;20520;-68
2022/03/01 13:08:55;;;;;;;8.32;5.18;;;;;;;;;;5054007;28;20142;-68
2022/03/01 13:11:21;;;;;;;7.75;4.82;;;;;;;;;;5051626;28;20094;-68
2022/03/01 13:13:47;;;;;;;8.00;4.57;;;;;;;;;;5048302;28;20490;-68
2022/03/01 13:16:18;;;;;;;8.27;4.68;;;;;;;;;;5072065;28;20033;-68
2022/03/01 13:18:44;;;;;;;7.85;4.80;;;;;;;;;;5056989;28;20037;-68
2022/03/01 13:21:11;;;;;;;9.38;5.10;;;;;;;;;;5061225;28;20048;-69
2022/03/01 13:23:38;;;;;;;8.75;4.82;;;;;;;;;;5061268;28;20131;-68
2022/03/01 13:26:04;;;;;;;9.15;5.40;;;;;;;;;;5060088;28;20052;-68
2022/03/01 13:28:37;;;;;;;8.30;5.63;;;;;;;;;;5042898;28;20204;-69
2022/03/01 13:31:05;;;;;;;7.40;4.85;;;;;;;;;;5094146;28;20056;-69
2022/03/01 13:33:31;;;;;;;8.93;5.30;;;;;;;;;;5066707;28;20118;-69
2022/03/01 13:35:58;;;;;;;9.48;4.78;;;;;;;;;;5034133;28;20502;-68
2022/03/01 13:38:25;;;;;;;12.00;4.82;;;;;;;;;;5040705;28;20049;-69
2022/03/01 13:40:51;;;;;;;8.48;5.38;;;;;;;;;;5060051;28;20054;-68
2022/03/01 13:43:23;;;;;;;9.88;5.18;;;;;;;;;;5059553;28;20061;-69
2022/03/01 13:45:55;;;;;;;9.70;5.20;;;;;;;;;;5043849;28;20048;-70
2022/03/01 13:48:20;;;;;;;12.20;4.72;;;;;;;;;;5057697;28;20063;-70
2022/03/01 13:50:48;;;;;;;9.80;5.38;;;;;;;;;;5080111;28;20127;-70
2022/03/01 13:53:16;;;;;;;8.95;5.40;;;;;;;;;;5051800;28;20048;-70
2022/03/01 13:55:42;;;;;;;10.85;5.32;;;;;;;;;;5073884;28;20048;-69
2022/03/01 13:58:11;;;;;;;10.85;5.53;;;;;;;;;;5082680;28;20079;-70
2022/03/01 14:00:42;;;;;;;7.82;4.80;;;;;;;;;;5080533;28;20048;-71
2022/03/01 14:03:13;;;;;;;8.70;5.20;;;;;;;;;;5078211;28;20052;-71
2022/03/01 14:05:44;;;;;;;8.50;5.22;;;;;;;;;;5079609;28;20044;-70
2022/03/01 14:08:11;;;;;;;8.98;5.43;;;;;;;;;;5078851;28;20056;-69
2022/03/01 14:10:38;;;;;;;8.52;5.18;;;;;;;;;;5054911;28;20950;-70
2022/03/01 14:13:09;;;;;;;7.65;4.80;;;;;;;;;;5065928;28;20514;-69
2022/03/01 14:15:41;;;;;;;10.00;5.70;;;;;;;;;;5075233;28;20041;-69
2022/03/01 14:18:08;;;;;;;11.30;5.72;;;;;;;;;;5048424;28;20045;-70
2022/03/01 14:20:34;;;;;;;8.50;5.10;;;;;;;;;;5046724;28;20398;-70
2022/03/01 14:23:01;;;;;;;8.75;4.72;;;;;;;;;;5050719;28;20153;-71
2022/03/01 14:25:27;;;;;;;10.15;5.07;;;;;;;;;;5061017;28;20151;-70
2022/03/01 14:27:54;;;;;;;8.38;5.13;;;;;;;;;;5053125;28;20054;-70
2022/03/01 14:30:20;;;;;;;7.70;4.72;;;;;;;;;;5068640;28;20135;-70
2022/03/01 14:32:47;;;;;;;9.25;5.57;;;;;;;;;;5056445;28;20067;-69
2022/03/01 14:35:13;;;;;;;10.32;6.13;;;;;;;;;;5078870;28;20078;-70
2022/03/01 14:37:39;;;;;;;10.32;6.10;;;;;;;;;;5042851;28;20595;-70